Time;durP1;ratioP1;P1;durP2;ratioP2;P2;SDS_P1;SDS_P2;PMS_P1;PMS_P2;Temp;Humidity;BMP_temperature;BMP_pressure;BME280_temperature;BME280_humidity;BME280_pressure;Samples;Min_cycle;Max_cycle;Signal;HPM_P1;HPM_P2
2022/01/23 00:09:54;;;;;;;21.08;7.70;;;5.30;99.90;;;;;;4917143;29;20068;-88
2022/01/23 00:12:52;;;;;;;21.58;7.57;;;5.80;99.90;;;;;;4932652;29;20098;-87
2022/01/23 00:18:04;;;;;;;19.65;8.23;;;5.30;99.90;;;;;;4985327;28;20053;-87
2022/01/23 00:20:29;;;;;;;15.82;7.00;;;5.30;99.90;;;;;;5011467;28;20038;-87
2022/01/23 00:22:59;;;;;;;14.93;6.43;;;5.30;99.90;;;;;;5015626;28;20366;-87
2022/01/23 00:31:36;;;;;;;18.80;7.25;;;5.20;99.90;;;;;;5010741;28;20057;-86
2022/01/23 00:34:30;;;;;;;14.93;6.65;;;5.20;99.90;;;;;;5012152;28;20128;-87
2022/01/23 00:36:56;;;;;;;15.30;6.60;;;5.10;99.90;;;;;;5013563;28;20496;-87
2022/01/23 00:42:58;;;;;;;26.83;7.35;;;4.50;99.90;;;;;;5011472;28;20369;-88
2022/01/23 00:45:34;;;;;;;19.65;7.07;;;5.40;99.90;;;;;;4901870;29;20059;-88
2022/01/23 00:48:07;;;;;;;17.50;7.65;;;5.80;99.90;;;;;;4901391;29;20088;-87
2022/01/23 00:54:43;;;;;;;16.20;6.47;;;5.60;99.90;;;;;;4872549;29;20567;-87
2022/01/23 01:09:48;;;;;;;18.50;7.68;;;4.30;99.90;;;;;;4847900;29;20735;-87
2022/01/23 01:12:51;;;;;;;22.95;7.35;;;5.20;99.90;;;;;;4821702;29;20574;-87
2022/01/23 01:16:50;;;;;;;;;;;;;;;;;;;;;
2022/01/23 01:30:43;;;;;;;14.75;6.53;;;5.20;99.90;;;;;;5017919;28;20111;-87
2022/01/23 01:35:58;;;;;;;24.27;7.90;;;5.10;99.90;;;;;;5014815;28;20054;-88
2022/01/23 01:38:24;;;;;;;21.20;6.95;;;5.20;99.90;;;;;;4998665;28;20033;-88
2022/01/23 01:40:51;;;;;;;12.13;6.95;;;5.50;99.90;;;;;;4998154;28;20049;-88
2022/01/23 01:43:17;;;;;;;17.17;6.88;;;5.10;99.90;;;;;;5032638;28;20447;-87
2022/01/23 01:45:44;;;;;;;16.70;6.25;;;5.20;99.90;;;;;;4998706;28;20041;-87
2022/01/23 01:48:11;;;;;;;19.75;6.93;;;5.20;99.90;;;;;;5015380;28;20436;-88
2022/01/23 01:50:43;;;;;;;18.88;7.22;;;5.20;99.90;;;;;;5014432;28;20059;-87
2022/01/23 01:53:11;;;;;;;15.48;6.85;;;5.20;99.90;;;;;;5014784;28;20079;-88
2022/01/23 01:55:42;;;;;;;20.98;6.40;;;5.10;99.90;;;;;;5014206;28;20064;-88
2022/01/23 01:58:22;;;;;;;19.67;7.38;;;5.20;99.90;;;;;;5013990;28;20064;-87
2022/01/23 02:00:55;;;;;;;17.23;8.73;;;5.20;99.90;;;;;;5006243;28;20054;-88
2022/01/23 02:08:18;;;;;;;16.17;6.03;;;5.20;99.90;;;;;;5032110;28;20124;-88
2022/01/23 02:08:55;;;;;;;22.73;6.90;;;5.10;99.90;;;;;;5014232;28;20508;-88
2022/01/23 02:11:38;;;;;;;20.65;6.40;;;5.20;99.90;;;;;;4996839;28;20042;-88
2022/01/23 02:14:26;;;;;;;20.85;7.30;;;5.10;99.90;;;;;;5013930;28;20140;-87
2022/01/23 02:25:16;;;;;;;15.65;6.60;;;5.20;99.90;;;;;;5030485;28;20079;-88
2022/01/23 02:55:23;;;;;;;18.45;6.88;;;5.20;99.90;;;;;;5031452;28;20132;-88
2022/01/23 02:57:58;;;;;;;20.08;7.45;;;5.40;99.90;;;;;;5032448;28;20090;-85
2022/01/23 03:00:31;;;;;;;22.17;7.97;;;5.20;99.90;;;;;;5013922;28;20072;-85
2022/01/23 03:03:04;;;;;;;15.88;6.82;;;5.20;99.90;;;;;;5014795;28;20483;-86
2022/01/23 03:08:16;;;;;;;25.90;7.03;;;5.20;99.90;;;;;;5013733;28;20129;-86
2022/01/23 03:10:47;;;;;;;21.83;8.07;;;5.20;99.90;;;;;;5028924;28;20045;-86
2022/01/23 03:24:20;;;;;;;16.85;6.50;;;5.20;99.90;;;;;;5012335;28;20123;-86
2022/01/23 03:29:38;;;;;;;29.13;8.20;;;5.20;99.90;;;;;;5011795;28;20060;-86
2022/01/23 03:32:19;;;;;;;16.83;7.03;;;5.30;99.90;;;;;;5028757;28;20294;-86
2022/01/23 03:34:45;;;;;;;25.63;7.63;;;5.30;99.90;;;;;;5029784;28;20053;-86
2022/01/23 03:37:11;;;;;;;24.75;7.32;;;5.30;99.90;;;;;;5011676;28;20060;-87
2022/01/23 03:39:36;;;;;;;18.40;6.40;;;5.30;99.90;;;;;;4996578;28;20045;-86
2022/01/23 03:42:03;;;;;;;19.25;6.60;;;5.30;99.90;;;;;;5029466;28;20061;-86
2022/01/23 03:44:28;;;;;;;17.60;6.57;;;5.30;99.90;;;;;;5029253;28;20118;-86
2022/01/23 03:47:20;;;;;;;17.23;6.55;;;5.30;99.90;;;;;;4994796;28;20178;-86
2022/01/23 03:49:48;;;;;;;17.30;7.03;;;5.30;99.90;;;;;;5010885;28;20045;-86
2022/01/23 03:52:15;;;;;;;17.73;7.43;;;5.30;99.90;;;;;;5010677;28;20053;-86
2022/01/23 03:54:41;;;;;;;23.88;6.78;;;5.30;99.90;;;;;;4994796;28;20049;-86
2022/01/23 03:57:08;;;;;;;17.67;7.55;;;5.30;99.90;;;;;;5010412;28;20045;-86
2022/01/23 03:59:35;;;;;;;17.02;7.38;;;5.30;99.90;;;;;;5011204;28;20049;-86
2022/01/23 04:02:02;;;;;;;20.45;7.82;;;5.30;99.90;;;;;;5029368;28;20050;-87
2022/01/23 04:04:40;;;;;;;20.83;7.85;;;5.20;99.90;;;;;;5011537;28;20405;-87
2022/01/23 04:07:20;;;;;;;17.67;6.95;;;5.20;99.90;;;;;;5011774;28;20045;-87
2022/01/23 04:09:47;;;;;;;18.42;8.18;;;5.20;99.90;;;;;;5029198;28;20034;-87
2022/01/23 04:15:06;;;;;;;20.00;7.18;;;6.50;99.90;;;;;;5010408;28;20065;-86
2022/01/23 04:34:21;;;;;;;14.60;6.40;;;5.20;99.90;;;;;;5011373;28;20053;-86
2022/01/23 05:01:15;;;;;;;14.95;5.60;;;5.20;99.90;;;;;;5014412;28;20057;-86
2022/01/23 05:06:29;;;;;;;16.75;6.57;;;5.20;99.90;;;;;;5032645;28;20065;-86
2022/01/23 05:08:55;;;;;;;17.23;7.15;;;5.30;99.90;;;;;;5032080;28;20045;-86
2022/01/23 05:11:21;;;;;;;14.90;6.88;;;5.30;99.90;;;;;;5014614;28;20108;-86
2022/01/23 05:13:47;;;;;;;19.00;5.65;;;5.30;99.90;;;;;;5032930;28;20081;-86
2022/01/23 05:16:13;;;;;;;18.67;6.25;;;5.20;99.90;;;;;;4998888;28;20049;-86
2022/01/23 05:18:39;;;;;;;16.30;5.72;;;5.30;99.90;;;;;;5032809;28;20045;-87
2022/01/23 05:21:49;;;;;;;12.80;5.43;;;5.30;99.90;;;;;;5013912;28;20095;-86
2022/01/23 05:24:07;;;;;;;14.38;5.40;;;5.20;99.90;;;;;;5015490;28;20333;-86
2022/01/23 05:26:41;;;;;;;13.27;5.78;;;5.30;99.90;;;;;;5015790;28;20820;-86
2022/01/23 05:29:07;;;;;;;15.93;5.70;;;5.20;99.90;;;;;;5016027;28;20131;-86
2022/01/23 05:31:32;;;;;;;16.27;6.85;;;5.20;99.90;;;;;;5016282;28;20041;-86
2022/01/23 05:33:58;;;;;;;16.33;6.03;;;5.30;99.90;;;;;;5015713;28;20462;-86
2022/01/23 05:36:23;;;;;;;14.75;6.30;;;5.30;99.90;;;;;;5033703;28;20046;-86
2022/01/23 05:38:49;;;;;;;14.20;5.88;;;5.30;99.90;;;;;;5015502;28;20107;-86
2022/01/23 05:41:15;;;;;;;11.90;5.47;;;5.30;99.90;;;;;;5033373;28;20092;-87
2022/01/23 05:43:40;;;;;;;24.10;6.78;;;5.30;99.90;;;;;;5015445;28;20088;-86
2022/01/23 05:46:06;;;;;;;16.13;6.38;;;5.30;99.90;;;;;;5013453;28;20092;-86
2022/01/23 05:48:32;;;;;;;14.13;6.00;;;5.30;99.90;;;;;;4998864;28;20064;-86
2022/01/23 05:50:57;;;;;;;16.65;6.35;;;5.30;99.90;;;;;;5019837;28;20103;-86
2022/01/23 05:53:23;;;;;;;17.25;6.25;;;5.30;99.90;;;;;;5038674;28;20499;-86
2022/01/23 05:55:49;;;;;;;14.95;6.15;;;5.30;99.90;;;;;;5003862;28;20049;-87
2022/01/23 05:58:14;;;;;;;15.25;6.10;;;5.30;99.90;;;;;;5017817;28;20113;-86
2022/01/23 06:00:40;;;;;;;22.42;8.25;;;5.30;99.90;;;;;;5015396;28;20057;-86
2022/01/23 06:03:06;;;;;;;27.10;7.07;;;5.30;99.90;;;;;;5014956;28;20419;-86
2022/01/23 06:05:31;;;;;;;15.05;5.75;;;5.30;99.90;;;;;;5013992;28;20041;-85
2022/01/23 06:07:57;;;;;;;15.38;6.20;;;5.30;99.90;;;;;;5013708;28;20045;-86
2022/01/23 06:10:25;;;;;;;15.38;6.68;;;5.20;99.90;;;;;;5026750;28;20634;-86
2022/01/23 06:12:52;;;;;;;17.55;6.70;;;5.20;99.90;;;;;;4991819;28;20528;-86
2022/01/23 06:15:18;;;;;;;14.90;5.68;;;5.20;99.90;;;;;;5008083;28;20053;-86
2022/01/23 06:17:44;;;;;;;19.48;7.05;;;5.30;99.90;;;;;;5011468;28;20169;-86
2022/01/23 06:20:12;;;;;;;18.33;6.80;;;5.30;99.90;;;;;;5009580;28;20128;-86
2022/01/23 06:22:38;;;;;;;15.25;6.13;;;5.30;99.90;;;;;;5010073;28;20046;-86
2022/01/23 06:25:08;;;;;;;20.65;6.22;;;5.30;99.90;;;;;;5027799;28;20084;-86
2022/01/23 06:27:34;;;;;;;17.40;7.18;;;5.30;99.90;;;;;;5010139;28;20050;-86
2022/01/23 06:29:59;;;;;;;15.10;7.07;;;5.30;99.90;;;;;;5027811;28;20127;-86
2022/01/23 06:32:25;;;;;;;15.63;6.13;;;5.30;99.90;;;;;;5027750;28;20495;-86
2022/01/23 06:34:51;;;;;;;15.25;7.35;;;5.30;99.90;;;;;;5009254;28;20049;-86
2022/01/23 06:37:17;;;;;;;15.10;6.07;;;5.30;99.90;;;;;;5027593;28;20046;-86
2022/01/23 06:39:43;;;;;;;19.67;6.38;;;5.50;99.90;;;;;;5009551;28;20060;-87
2022/01/23 06:42:09;;;;;;;20.60;6.80;;;5.30;99.90;;;;;;5027862;28;20053;-87
2022/01/23 06:44:36;;;;;;;16.20;6.03;;;5.30;99.90;;;;;;5027566;28;20415;-86
2022/01/23 06:47:01;;;;;;;16.30;6.53;;;5.30;99.90;;;;;;5009628;28;20057;-86
2022/01/23 06:49:27;;;;;;;22.52;7.88;;;5.30;99.90;;;;;;5027550;28;20499;-86
2022/01/23 06:51:53;;;;;;;15.40;7.10;;;5.40;99.90;;;;;;5008967;28;20052;-86
2022/01/23 06:54:19;;;;;;;17.30;7.43;;;5.20;99.90;;;;;;5009469;28;20507;-86
2022/01/23 06:56:45;;;;;;;18.17;7.18;;;5.20;99.90;;;;;;4992684;28;20045;-86
2022/01/23 06:59:11;;;;;;;15.85;8.07;;;5.20;99.90;;;;;;5008528;28;20060;-86
2022/01/23 07:01:36;;;;;;;21.95;7.43;;;5.20;99.90;;;;;;5011066;28;20057;-86
2022/01/23 07:04:02;;;;;;;16.25;6.80;;;5.20;99.90;;;;;;5009320;28;20132;-86
2022/01/23 07:06:31;;;;;;;21.10;7.40;;;5.20;99.90;;;;;;5010446;28;20526;-86
2022/01/23 07:08:57;;;;;;;15.85;7.25;;;5.20;99.90;;;;;;5009313;28;20055;-86
2022/01/23 07:11:22;;;;;;;16.45;7.50;;;6.00;99.90;;;;;;5009240;28;20064;-86
2022/01/23 07:13:48;;;;;;;19.92;7.68;;;5.20;99.90;;;;;;5009871;28;20056;-87
2022/01/23 07:16:14;;;;;;;18.20;7.55;;;5.20;99.90;;;;;;5029104;28;20050;-86
2022/01/23 07:18:39;;;;;;;18.45;8.05;;;5.20;99.90;;;;;;5010951;28;20065;-86
2022/01/23 07:21:05;;;;;;;19.48;7.95;;;5.20;99.90;;;;;;5027895;28;20587;-86
2022/01/23 07:23:30;;;;;;;19.70;7.72;;;5.20;99.90;;;;;;5008685;28;20055;-87
2022/01/23 07:25:56;;;;;;;27.35;8.88;;;5.10;99.90;;;;;;5027238;28;20403;-86
2022/01/23 07:28:25;;;;;;;27.45;9.52;;;5.10;99.90;;;;;;5008842;28;20812;-86
2022/01/23 07:30:54;;;;;;;20.02;8.00;;;5.20;99.90;;;;;;5007737;28;20534;-86
2022/01/23 07:33:20;;;;;;;16.67;7.63;;;5.20;99.90;;;;;;5028224;28;20049;-86
2022/01/23 07:35:47;;;;;;;21.20;7.60;;;5.20;99.90;;;;;;5026186;28;20052;-86
2022/01/23 07:38:16;;;;;;;18.52;8.43;;;5.20;99.90;;;;;;5008324;28;20057;-86
2022/01/23 07:40:44;;;;;;;18.52;8.70;;;5.20;99.90;;;;;;5008399;28;20103;-86
2022/01/23 07:43:10;;;;;;;24.80;8.63;;;5.20;99.90;;;;;;5026486;28;20049;-86
2022/01/23 07:45:35;;;;;;;16.00;7.05;;;5.20;99.90;;;;;;5008663;28;20104;-86
2022/01/23 07:48:01;;;;;;;16.58;6.68;;;5.20;99.90;;;;;;5007606;28;20057;-86
2022/01/23 07:50:26;;;;;;;17.48;8.02;;;5.20;99.90;;;;;;4989876;28;20148;-86
2022/01/23 07:52:52;;;;;;;20.08;7.75;;;5.20;99.90;;;;;;5005984;28;20045;-86
2022/01/23 07:55:18;;;;;;;17.45;7.35;;;5.20;99.90;;;;;;5021436;28;20049;-86
2022/01/23 07:57:43;;;;;;;23.35;8.25;;;5.30;99.90;;;;;;5021509;28;20050;-86
2022/01/23 08:00:11;;;;;;;17.75;8.10;;;5.20;99.90;;;;;;5022143;28;20041;-86
2022/01/23 08:02:38;;;;;;;19.85;7.28;;;5.20;99.90;;;;;;5021502;28;20053;-86
2022/01/23 08:05:05;;;;;;;16.17;7.55;;;5.30;99.90;;;;;;5011136;28;20057;-86
2022/01/23 08:07:31;;;;;;;16.08;6.45;;;5.30;99.90;;;;;;5003756;28;20041;-86
2022/01/23 08:10:02;;;;;;;21.02;6.85;;;5.30;99.90;;;;;;5021633;28;20459;-86
2022/01/23 08:12:30;;;;;;;17.60;6.95;;;5.30;99.90;;;;;;5004026;28;20076;-86
2022/01/23 08:14:57;;;;;;;17.02;7.07;;;5.30;99.90;;;;;;5003238;28;20050;-86
2022/01/23 08:17:26;;;;;;;14.90;6.50;;;5.40;99.90;;;;;;5000319;28;20045;-86
2022/01/23 08:19:53;;;;;;;16.67;6.70;;;5.40;99.90;;;;;;5001672;28;20053;-86
2022/01/23 08:22:20;;;;;;;20.17;7.80;;;5.40;99.90;;;;;;5019857;28;20049;-86
2022/01/23 08:24:46;;;;;;;14.18;5.65;;;5.50;99.90;;;;;;5001787;28;20508;-86
2022/01/23 08:27:17;;;;;;;16.85;7.60;;;5.50;99.90;;;;;;5001694;28;20053;-86
2022/01/23 08:29:44;;;;;;;13.50;6.15;;;5.50;99.90;;;;;;4993807;28;20138;-86
2022/01/23 08:32:10;;;;;;;15.63;6.32;;;5.50;99.90;;;;;;5021006;28;20048;-86
2022/01/23 08:34:36;;;;;;;11.52;4.43;;;5.60;99.90;;;;;;5021974;28;20313;-86
2022/01/23 08:37:04;;;;;;;11.52;5.50;;;5.60;99.90;;;;;;5021695;28;20100;-86
2022/01/23 08:39:31;;;;;;;11.88;5.53;;;5.60;99.90;;;;;;5021217;28;20080;-85
2022/01/23 08:41:57;;;;;;;13.27;5.60;;;5.60;99.90;;;;;;5003495;28;20179;-86
2022/01/23 08:44:28;;;;;;;8.52;4.22;;;5.70;99.90;;;;;;5023236;28;20674;-86
2022/01/23 08:46:56;;;;;;;10.25;4.97;;;5.70;99.90;;;;;;5004027;28;20084;-86
2022/01/23 08:49:22;;;;;;;7.70;4.15;;;5.70;99.90;;;;;;5021573;28;20091;-86
2022/01/23 08:51:50;;;;;;;8.73;3.97;;;5.80;99.90;;;;;;5020764;28;20524;-86
2022/01/23 08:54:16;;;;;;;12.23;4.85;;;5.80;99.90;;;;;;5004879;28;20102;-86
2022/01/23 08:56:42;;;;;;;8.52;4.45;;;5.80;99.90;;;;;;5003411;28;20427;-86
2022/01/23 08:59:08;;;;;;;7.93;3.83;;;5.80;99.90;;;;;;5021775;28;20064;-86
2022/01/23 09:01:35;;;;;;;8.68;4.65;;;5.90;99.90;;;;;;5023174;28;20469;-86
2022/01/23 09:04:04;;;;;;;6.43;4.10;;;5.90;99.90;;;;;;5024108;28;20358;-86
2022/01/23 09:06:30;;;;;;;9.43;3.83;;;6.00;99.90;;;;;;5023139;28;20100;-85
2022/01/23 09:08:58;;;;;;;8.02;3.97;;;6.00;99.90;;;;;;5003667;28;20462;-86
2022/01/23 09:11:27;;;;;;;9.70;4.00;;;6.00;99.90;;;;;;5021627;28;20701;-86
2022/01/23 09:16:20;;;;;;;6.13;3.35;;;6.10;99.90;;;;;;5021940;28;20099;-85
2022/01/23 09:18:46;;;;;;;7.70;3.47;;;6.10;99.90;;;;;;5004546;28;20065;-85
2022/01/23 09:21:12;;;;;;;7.45;3.88;;;6.10;99.90;;;;;;5000809;28;20171;-86
2022/01/23 09:23:38;;;;;;;6.05;3.58;;;6.20;99.90;;;;;;5004084;28;20519;-85
2022/01/23 09:26:09;;;;;;;6.53;3.60;;;6.20;99.90;;;;;;5005856;28;20065;-85
2022/01/23 09:28:36;;;;;;;6.90;3.92;;;6.30;99.90;;;;;;5020305;28;20061;-86
2022/01/23 09:31:02;;;;;;;8.90;4.28;;;6.30;99.90;;;;;;5002264;28;20488;-86
2022/01/23 09:33:28;;;;;;;9.82;5.13;;;6.30;99.90;;;;;;5023938;28;20065;-86
2022/01/23 09:35:55;;;;;;;7.32;3.70;;;6.30;99.90;;;;;;5024291;28;20069;-85
2022/01/23 09:38:21;;;;;;;11.02;4.70;;;6.40;99.90;;;;;;5023560;28;20114;-85
2022/01/23 09:40:53;;;;;;;8.88;4.75;;;6.40;99.90;;;;;;5005793;28;20421;-85
2022/01/23 09:43:20;;;;;;;8.02;4.00;;;6.40;99.90;;;;;;5006433;28;20076;-85
2022/01/23 09:45:48;;;;;;;6.70;3.60;;;6.50;99.90;;;;;;5005709;28;20063;-85
2022/01/23 09:48:16;;;;;;;7.72;3.92;;;6.50;99.90;;;;;;5006064;28;20050;-85
2022/01/23 09:50:44;;;;;;;8.38;4.10;;;6.60;99.90;;;;;;5005322;28;20060;-85
2022/01/23 09:53:11;;;;;;;7.07;4.10;;;6.60;99.90;;;;;;5005888;28;20049;-85
2022/01/23 09:55:39;;;;;;;9.32;4.15;;;6.70;99.90;;;;;;5006099;28;20049;-85
2022/01/23 09:58:05;;;;;;;7.50;4.13;;;7.00;99.90;;;;;;5006175;28;20053;-85
2022/01/23 10:00:33;;;;;;;9.95;4.25;;;6.80;99.90;;;;;;5023272;28;20041;-86
2022/01/23 10:02:59;;;;;;;7.03;4.15;;;6.80;99.90;;;;;;5023802;28;20143;-86
2022/01/23 10:05:26;;;;;;;8.85;5.03;;;6.80;99.90;;;;;;5005486;28;20349;-86
2022/01/23 10:07:53;;;;;;;8.35;4.80;;;6.80;99.90;;;;;;5023605;28;20052;-86
2022/01/23 10:10:28;;;;;;;8.07;4.50;;;6.90;99.90;;;;;;5008827;28;20085;-86
2022/01/23 10:12:57;;;;;;;8.43;4.45;;;6.90;99.90;;;;;;4993817;28;20127;-86
2022/01/23 10:15:28;;;;;;;7.40;4.85;;;6.90;99.90;;;;;;5009529;28;20123;-86
2022/01/23 10:17:54;;;;;;;7.57;4.43;;;7.00;99.90;;;;;;5027410;28;20069;-86
2022/01/23 10:20:20;;;;;;;7.38;3.95;;;7.10;99.90;;;;;;5008768;28;20538;-86
2022/01/23 10:22:49;;;;;;;8.38;4.03;;;7.20;99.90;;;;;;5009203;28;20041;-85
2022/01/23 10:25:22;;;;;;;6.78;3.85;;;7.20;99.90;;;;;;5011901;28;20049;-86
2022/01/23 10:28:04;;;;;;;8.00;4.07;;;7.30;99.90;;;;;;5027902;28;20091;-86
2022/01/23 10:30:38;;;;;;;5.75;3.63;;;7.30;99.90;;;;;;5026962;28;20047;-86
2022/01/23 10:33:07;;;;;;;8.40;3.75;;;7.30;99.90;;;;;;5014603;28;20088;-86
2022/01/23 10:35:51;;;;;;;7.78;3.75;;;7.40;99.90;;;;;;5027747;28;20172;-85
2022/01/23 10:38:18;;;;;;;11.82;3.58;;;7.30;99.90;;;;;;5027519;28;20057;-85
2022/01/23 10:40:50;;;;;;;6.72;4.03;;;7.30;99.90;;;;;;5026750;28;20665;-86
2022/01/23 10:46:40;;;;;;;5.03;3.22;;;7.90;99.90;;;;;;5026330;28;20069;-86
2022/01/23 10:48:58;;;;;;;6.20;2.80;;;7.30;99.90;;;;;;5025409;28;20076;-86
2022/01/23 10:51:35;;;;;;;5.78;2.97;;;7.40;99.90;;;;;;5027020;28;20077;-86
2022/01/23 10:54:15;;;;;;;6.68;3.42;;;7.40;99.90;;;;;;5021530;28;20053;-86
2022/01/23 10:56:55;;;;;;;9.27;3.53;;;7.40;99.90;;;;;;5023062;28;20065;-86
2022/01/23 10:59:21;;;;;;;5.75;3.13;;;7.50;99.90;;;;;;4990956;28;20107;-85
2022/01/23 11:02:03;;;;;;;5.88;3.22;;;7.50;99.90;;;;;;5026318;28;20049;-86
2022/01/23 11:04:29;;;;;;;3.97;2.13;;;7.50;99.90;;;;;;5025273;28;20076;-86
2022/01/23 11:07:01;;;;;;;3.47;1.80;;;7.60;99.90;;;;;;5027898;28;20072;-86
2022/01/23 11:09:30;;;;;;;4.55;1.40;;;7.60;99.90;;;;;;5028515;28;20388;-85
2022/01/23 11:12:01;;;;;;;1.70;1.08;;;7.70;99.90;;;;;;5030293;28;20477;-85
2022/01/23 11:17:22;;;;;;;1.15;0.40;;;7.70;99.90;;;;;;5026728;28;20092;-86
2022/01/23 11:19:49;;;;;;;3.13;0.50;;;7.70;99.90;;;;;;5027942;28;20461;-85
2022/01/23 11:22:21;;;;;;;0.90;0.40;;;7.60;99.90;;;;;;5028571;28;20057;-85
2022/01/23 11:24:48;;;;;;;2.03;0.30;;;7.70;99.90;;;;;;5027724;28;20061;-85
2022/01/23 11:27:19;;;;;;;1.17;0.20;;;7.60;99.90;;;;;;5026875;28;20132;-85
2022/01/23 11:29:57;;;;;;;0.30;0.30;;;7.50;99.90;;;;;;4992875;28;20133;-87
2022/01/23 11:32:26;;;;;;;0.77;0.20;;;7.50;99.90;;;;;;5027320;28;20454;-85
2022/01/23 11:34:59;;;;;;;1.75;1.00;;;7.40;99.90;;;;;;4993297;28;20049;-86
2022/01/23 11:37:26;;;;;;;1.13;0.50;;;7.30;99.90;;;;;;5025937;28;20049;-86
2022/01/23 11:39:57;;;;;;;0.95;0.60;;;7.30;99.90;;;;;;5008923;28;20049;-85
2022/01/23 11:56:40;;;;;;;1.13;0.50;;;7.70;99.90;;;;;;5020232;28;20049;-85
2022/01/23 11:59:20;;;;;;;0.35;0.28;;;7.80;99.90;;;;;;5003442;28;20513;-84
2022/01/23 12:02:07;;;;;;;0.57;0.20;;;7.90;99.90;;;;;;5002725;28;20488;-85
2022/01/23 12:04:34;;;;;;;0.77;0.28;;;7.90;99.90;;;;;;5003255;28;20576;-85
2022/01/23 12:07:10;;;;;;;0.50;0.20;;;8.00;99.90;;;;;;5002487;28;20080;-85
2022/01/23 12:09:36;;;;;;;0.90;0.45;;;8.00;99.90;;;;;;5003521;28;20061;-85
2022/01/23 12:12:21;;;;;;;1.42;0.70;;;8.00;99.90;;;;;;5003205;28;20060;-85
2022/01/23 12:17:39;;;;;;;0.90;0.20;;;8.00;99.90;;;;;;5002909;28;20452;-84
2022/01/23 12:20:06;;;;;;;1.08;0.40;;;8.00;99.90;;;;;;4992041;28;20524;-85
2022/01/23 12:22:37;;;;;;;0.63;0.35;;;8.00;99.90;;;;;;5002709;28;20049;-84
2022/01/23 12:25:22;;;;;;;1.35;0.40;;;8.00;99.90;;;;;;5002754;28;20532;-85
2022/01/23 12:28:12;;;;;;;1.02;0.40;;;8.00;99.90;;;;;;5017826;28;20057;-85
2022/01/23 12:30:38;;;;;;;0.90;0.52;;;8.00;99.90;;;;;;5015144;28;20064;-85
2022/01/23 12:33:23;;;;;;;1.30;0.65;;;7.90;99.90;;;;;;5017117;28;20845;-85
2022/01/23 12:35:55;;;;;;;1.08;0.50;;;8.00;99.90;;;;;;4987936;28;20060;-84
2022/01/23 12:38:48;;;;;;;6.13;0.80;;;8.00;99.90;;;;;;5004801;28;20124;-84
2022/01/23 12:41:29;;;;;;;1.52;0.60;;;8.50;99.90;;;;;;5024161;28;20060;-85
2022/01/23 12:44:05;;;;;;;3.63;0.70;;;8.00;99.90;;;;;;5026722;28;20061;-85
2022/01/23 12:46:32;;;;;;;2.05;0.50;;;7.90;99.90;;;;;;5019449;28;20046;-85
2022/01/23 12:49:13;;;;;;;2.38;0.50;;;8.00;99.90;;;;;;5019041;28;20476;-85
2022/01/23 12:51:41;;;;;;;1.13;0.50;;;8.00;99.90;;;;;;5018409;28;20570;-85
2022/01/23 12:54:10;;;;;;;2.63;0.90;;;8.00;99.90;;;;;;5019449;28;20049;-84
2022/01/23 12:56:44;;;;;;;0.82;0.43;;;8.00;99.90;;;;;;5002244;28;20397;-85
2022/01/23 12:59:20;;;;;;;5.32;1.50;;;8.10;99.90;;;;;;5020130;28;20463;-84
2022/01/23 13:01:47;;;;;;;5.60;2.03;;;8.10;99.90;;;;;;5019491;28;20072;-85
2022/01/23 13:04:13;;;;;;;2.03;0.63;;;8.10;99.90;;;;;;5019870;28;20404;-85
2022/01/23 13:07:01;;;;;;;1.63;0.68;;;8.10;99.90;;;;;;5021420;28;20048;-85
2022/01/23 13:12:05;;;;;;;1.88;0.80;;;8.10;99.90;;;;;;5023034;28;20516;-84
2022/01/23 13:14:43;;;;;;;3.40;1.27;;;8.10;99.90;;;;;;5004706;28;20500;-84
2022/01/23 13:17:26;;;;;;;1.75;1.02;;;8.10;99.90;;;;;;5005494;28;20107;-84
2022/01/23 13:31:06;;;;;;;7.38;1.20;;;8.20;99.90;;;;;;4990991;28;20108;-84
2022/01/23 13:33:38;;;;;;;3.13;1.45;;;8.20;99.90;;;;;;4999310;28;20057;-85
2022/01/23 13:36:07;;;;;;;3.35;1.52;;;8.20;99.90;;;;;;5007205;28;20127;-85
2022/01/23 13:38:35;;;;;;;6.38;1.67;;;8.20;99.90;;;;;;5017197;28;20045;-84
2022/01/23 13:41:09;;;;;;;6.20;2.33;;;8.20;99.90;;;;;;5025837;28;20748;-84
2022/01/23 13:50:10;;;;;;;3.60;2.00;;;8.10;99.90;;;;;;5004614;28;20057;-84
2022/01/23 13:52:08;;;;;;;3.03;1.45;;;8.00;99.90;;;;;;4998930;28;20123;-84
2022/01/23 14:00:24;;;;;;;4.20;2.08;;;7.80;99.90;;;;;;5014084;28;20060;-83
2022/01/23 14:02:47;;;;;;;4.40;1.90;;;7.80;99.90;;;;;;4992089;28;20111;-85
2022/01/23 14:05:17;;;;;;;3.85;1.90;;;7.80;99.90;;;;;;5011525;28;20050;-85
2022/01/23 14:07:54;;;;;;;3.28;1.90;;;7.80;99.90;;;;;;5001065;28;20056;-84
2022/01/23 14:10:22;;;;;;;4.28;2.17;;;7.70;99.90;;;;;;4974938;28;20046;-85
2022/01/23 14:12:49;;;;;;;3.20;1.85;;;7.70;99.90;;;;;;4986875;28;20050;-84
2022/01/23 14:15:24;;;;;;;3.97;1.45;;;7.60;99.90;;;;;;4983642;28;20046;-85
2022/01/23 14:18:03;;;;;;;4.28;1.65;;;7.60;99.90;;;;;;4965347;28;20085;-85
2022/01/23 14:20:32;;;;;;;3.08;1.33;;;7.60;99.90;;;;;;4983068;28;20050;-84
2022/01/23 14:22:59;;;;;;;3.92;0.80;;;7.60;99.90;;;;;;4993479;28;20058;-85
2022/01/23 14:25:28;;;;;;;1.88;1.00;;;7.40;99.90;;;;;;4999138;28;20629;-85
2022/01/23 14:28:02;;;;;;;1.88;0.93;;;7.50;99.90;;;;;;4979523;28;20073;-84
2022/01/23 14:30:29;;;;;;;2.55;0.98;;;7.40;99.90;;;;;;4991988;28;20125;-84
2022/01/23 14:33:03;;;;;;;3.58;1.20;;;7.40;99.90;;;;;;4976526;28;20062;-84
2022/01/23 14:35:30;;;;;;;5.45;1.30;;;7.40;99.90;;;;;;4974229;28;20108;-85
2022/01/23 14:38:12;;;;;;;5.88;1.75;;;7.30;99.90;;;;;;4991777;28;20050;-84
2022/01/23 14:40:49;;;;;;;1.92;1.10;;;7.30;99.90;;;;;;4991794;28;20489;-84
2022/01/23 14:43:15;;;;;;;2.33;1.05;;;7.30;99.90;;;;;;4990598;28;20635;-84
2022/01/23 14:45:46;;;;;;;1.88;0.80;;;7.30;99.90;;;;;;4991829;28;20050;-84
2022/01/23 14:48:14;;;;;;;2.60;0.80;;;7.30;99.90;;;;;;4973372;28;20082;-84
2022/01/23 14:50:43;;;;;;;3.60;1.35;;;7.30;99.90;;;;;;4976246;28;20054;-84
2022/01/23 14:53:11;;;;;;;2.20;1.30;;;7.20;99.90;;;;;;4992934;28;20050;-84
2022/01/23 14:55:41;;;;;;;3.85;1.00;;;7.20;99.90;;;;;;4974962;28;20062;-84
2022/01/23 14:58:10;;;;;;;2.38;1.38;;;7.10;99.90;;;;;;4975314;28;20054;-84
2022/01/23 15:00:36;;;;;;;1.90;0.70;;;7.10;99.90;;;;;;4972623;28;20109;-85
2022/01/23 15:03:04;;;;;;;1.90;0.85;;;7.10;99.90;;;;;;5019551;28;20148;-83
2022/01/23 15:05:32;;;;;;;2.63;1.20;;;7.00;99.90;;;;;;5027007;28;20485;-84
2022/01/23 15:07:58;;;;;;;2.13;0.98;;;7.00;99.90;;;;;;5026231;28;20037;-85
2022/01/23 15:10:25;;;;;;;2.17;0.70;;;7.00;99.90;;;;;;4993862;28;20065;-84
2022/01/23 15:12:50;;;;;;;9.32;1.55;;;7.00;99.90;;;;;;4996293;28;20147;-84
2022/01/23 15:15:16;;;;;;;4.07;1.20;;;6.90;99.90;;;;;;5026119;28;20045;-84
2022/01/23 15:17:42;;;;;;;2.83;1.00;;;6.90;99.90;;;;;;5027754;28;20543;-84
2022/01/23 15:20:08;;;;;;;3.95;1.58;;;6.90;99.90;;;;;;5009884;28;20580;-84
2022/01/23 15:22:34;;;;;;;3.78;1.33;;;6.90;99.90;;;;;;5026938;28;20084;-84
2022/01/23 15:25:01;;;;;;;7.13;1.38;;;6.80;99.90;;;;;;5009132;28;20096;-84
2022/01/23 15:27:27;;;;;;;2.38;1.02;;;6.80;99.90;;;;;;5025868;28;20080;-85
2022/01/23 15:29:52;;;;;;;3.38;1.08;;;6.80;99.90;;;;;;5026611;28;20049;-84
2022/01/23 15:32:18;;;;;;;4.55;1.00;;;6.70;99.90;;;;;;5026963;28;20064;-84
2022/01/23 15:34:44;;;;;;;17.27;10.90;;;6.70;99.90;;;;;;5026276;28;20114;-84
2022/01/23 15:37:10;;;;;;;9.05;5.07;;;6.70;99.90;;;;;;5025403;28;20098;-84
2022/01/23 15:39:37;;;;;;;5.45;3.22;;;6.70;99.90;;;;;;5007732;28;20062;-84
2022/01/23 15:42:04;;;;;;;3.47;1.45;;;6.70;99.90;;;;;;5007414;28;20115;-84
2022/01/23 15:44:30;;;;;;;3.53;1.20;;;6.70;99.90;;;;;;5025931;28;20083;-83
2022/01/23 15:46:55;;;;;;;3.67;1.65;;;6.70;99.90;;;;;;5025381;28;20124;-84
2022/01/23 15:49:21;;;;;;;4.18;1.88;;;6.70;99.90;;;;;;5007350;28;20060;-84
2022/01/23 15:51:47;;;;;;;8.50;1.77;;;6.60;99.90;;;;;;5024776;28;20045;-84
2022/01/23 15:54:18;;;;;;;5.05;1.75;;;6.60;99.90;;;;;;5023788;28;20049;-84
2022/01/23 15:56:47;;;;;;;3.58;1.98;;;6.60;99.90;;;;;;5003824;28;20045;-84
2022/01/23 15:59:14;;;;;;;4.82;1.85;;;6.60;99.90;;;;;;5025022;28;20128;-85
2022/01/23 16:01:40;;;;;;;4.47;2.17;;;6.60;99.90;;;;;;5024056;28;20065;-84
2022/01/23 16:04:06;;;;;;;6.18;2.08;;;6.60;99.90;;;;;;5020126;28;20542;-84
2022/01/23 16:06:32;;;;;;;4.70;1.65;;;6.60;99.90;;;;;;5020055;28;20081;-84
2022/01/23 16:08:57;;;;;;;5.35;1.52;;;6.50;99.90;;;;;;5020361;28;20453;-84
2022/01/23 16:11:23;;;;;;;3.83;1.55;;;6.50;99.90;;;;;;5021311;28;20060;-84
2022/01/23 16:13:49;;;;;;;3.67;1.45;;;6.50;99.90;;;;;;5004294;28;20115;-84
2022/01/23 16:16:14;;;;;;;8.82;3.22;;;6.50;99.90;;;;;;5003944;28;20053;-84
2022/01/23 16:18:41;;;;;;;8.77;4.57;;;6.40;99.90;;;;;;5021476;28;20053;-84
2022/01/23 16:21:07;;;;;;;3.88;2.15;;;6.50;99.90;;;;;;5021623;28;20045;-84
2022/01/23 16:23:33;;;;;;;7.32;3.53;;;6.50;99.90;;;;;;5020927;28;20049;-84
2022/01/23 16:25:59;;;;;;;11.07;7.82;;;6.50;99.90;;;;;;5020143;28;20511;-84
2022/01/23 16:28:25;;;;;;;8.10;2.95;;;6.50;99.90;;;;;;5019971;28;20038;-84
2022/01/23 16:30:54;;;;;;;4.88;2.28;;;6.50;99.90;;;;;;5020452;28;20358;-84